createdAt,value
2023-02-19T00:00:15.001Z,991.72
2023-02-19T00:01:15.005Z,991.70
2023-02-19T00:02:14.997Z,991.69
2023-02-19T00:03:15.025Z,991.62
2023-02-19T00:04:14.979Z,991.57
2023-02-19T00:05:15.032Z,991.52
2023-02-19T00:06:14.969Z,991.59
2023-02-19T00:07:14.944Z,991.58
2023-02-19T00:08:14.942Z,991.61
2023-02-19T00:09:14.931Z,991.59
2023-02-19T00:10:14.931Z,991.63
2023-02-19T00:11:14.901Z,991.57
2023-02-19T00:12:14.882Z,991.56
2023-02-19T00:13:14.884Z,991.52
2023-02-19T00:14:14.867Z,991.50
2023-02-19T00:15:14.854Z,991.46
2023-02-19T00:16:14.844Z,991.41
2023-02-19T00:17:14.831Z,991.38
2023-02-19T00:18:14.844Z,991.34
2023-02-19T00:19:14.870Z,991.32
2023-02-19T00:20:14.818Z,991.32
2023-02-19T00:21:14.806Z,991.30
2023-02-19T00:22:14.798Z,991.28
2023-02-19T00:23:14.773Z,991.29
2023-02-19T00:24:14.754Z,991.24
2023-02-19T00:25:14.757Z,991.22
2023-02-19T00:26:18.587Z,991.25
2023-02-19T00:27:14.722Z,991.22
2023-02-19T00:28:14.719Z,991.24
2023-02-19T00:29:14.712Z,991.25
2023-02-19T00:30:14.736Z,991.28
2023-02-19T00:31:14.931Z,991.20
2023-02-19T00:32:14.695Z,991.18
2023-02-19T00:33:14.663Z,991.14
2023-02-19T00:34:14.667Z,991.13
2023-02-19T00:35:14.671Z,991.12
2023-02-19T00:36:14.645Z,991.10
2023-02-19T00:37:14.622Z,991.05
2023-02-19T00:38:14.653Z,991.04
2023-02-19T00:39:14.612Z,991.04
2023-02-19T00:40:14.593Z,991.03
2023-02-19T00:41:14.581Z,990.99
2023-02-19T00:42:14.609Z,991.00
2023-02-19T00:43:14.568Z,991.03
2023-02-19T00:44:14.594Z,990.97
2023-02-19T00:45:14.570Z,990.94
2023-02-19T00:46:14.608Z,990.99
2023-02-19T00:47:14.531Z,990.96
2023-02-19T00:48:14.518Z,990.91
2023-02-19T00:49:14.520Z,990.84
2023-02-19T00:50:14.503Z,990.86
2023-02-19T00:51:14.504Z,990.82
2023-02-19T00:52:14.465Z,990.80
2023-02-19T00:53:14.497Z,990.79
2023-02-19T00:54:14.662Z,990.75
2023-02-19T00:55:14.452Z,990.72
2023-02-19T00:56:14.448Z,990.70
2023-02-19T00:57:14.422Z,990.70
2023-02-19T00:58:14.412Z,990.62
2023-02-19T00:59:14.416Z,990.58
2023-02-19T01:00:15.405Z,990.51
2023-02-19T01:01:14.421Z,990.49
2023-02-19T01:02:14.365Z,990.46
2023-02-19T01:03:14.357Z,990.41
2023-02-19T01:04:14.556Z,990.37
2023-02-19T01:05:14.338Z,990.30
2023-02-19T01:06:14.322Z,990.36
2023-02-19T01:07:14.342Z,990.35
2023-02-19T01:08:14.308Z,990.36
2023-02-19T01:09:14.300Z,990.35
2023-02-19T01:10:14.293Z,990.38
2023-02-19T01:11:14.291Z,990.34
2023-02-19T01:12:14.275Z,990.36
2023-02-19T01:13:14.256Z,990.35
2023-02-19T01:14:14.238Z,990.31
2023-02-19T01:15:14.243Z,990.34
2023-02-19T01:16:14.340Z,990.28
2023-02-19T01:17:14.204Z,990.29
2023-02-19T01:18:14.212Z,990.26
2023-02-19T01:19:14.187Z,990.27
2023-02-19T01:20:14.234Z,990.29
2023-02-19T01:21:14.172Z,990.34
2023-02-19T01:22:14.166Z,990.31
2023-02-19T01:23:14.178Z,990.26
2023-02-19T01:24:14.156Z,990.28
2023-02-19T01:25:14.135Z,990.28
2023-02-19T01:26:14.125Z,990.28
2023-02-19T01:27:14.108Z,990.30
2023-02-19T01:28:14.105Z,990.31
2023-02-19T01:29:14.091Z,990.22
2023-02-19T01:30:14.140Z,990.23
2023-02-19T01:31:14.492Z,990.17
2023-02-19T01:32:14.101Z,990.13
2023-02-19T01:33:14.050Z,990.02
2023-02-19T01:34:14.062Z,989.98
2023-02-19T01:35:14.025Z,990.00
2023-02-19T01:36:14.041Z,989.97
2023-02-19T01:37:14.011Z,990.02
2023-02-19T01:38:13.996Z,990.01
2023-02-19T01:39:14.005Z,989.99
2023-02-19T01:40:14.193Z,989.91
2023-02-19T01:41:13.960Z,989.88
2023-02-19T01:42:13.980Z,989.91
2023-02-19T01:43:13.944Z,989.90
2023-02-19T01:44:13.933Z,989.85
2023-02-19T01:45:13.925Z,989.81
2023-02-19T01:46:13.974Z,989.80
2023-02-19T01:47:13.899Z,989.75
2023-02-19T01:48:13.900Z,989.73
2023-02-19T01:49:14.098Z,989.75
2023-02-19T01:50:13.873Z,989.69
2023-02-19T01:51:13.867Z,989.65
2023-02-19T01:52:13.861Z,989.71
2023-02-19T01:53:13.837Z,989.66
2023-02-19T01:54:13.834Z,989.68
2023-02-19T01:55:13.847Z,989.72
2023-02-19T01:56:13.845Z,989.71
2023-02-19T01:57:13.828Z,989.70
2023-02-19T01:58:13.814Z,989.66
2023-02-19T01:59:13.800Z,989.66
2023-02-19T02:00:13.768Z,989.65
2023-02-19T02:01:14.092Z,989.59
2023-02-19T02:02:13.789Z,989.63
2023-02-19T02:03:13.762Z,989.57
2023-02-19T02:04:13.736Z,989.51
2023-02-19T02:05:13.719Z,989.51
2023-02-19T02:06:13.715Z,989.47
2023-02-19T02:07:13.690Z,989.44
2023-02-19T02:08:13.688Z,989.43
2023-02-19T02:09:13.688Z,989.41
2023-02-19T02:10:13.675Z,989.45
2023-02-19T02:11:13.697Z,989.41
2023-02-19T02:12:13.649Z,989.44
2023-02-19T02:13:13.675Z,989.47
2023-02-19T02:14:13.617Z,989.43
2023-02-19T02:15:13.627Z,989.46
2023-02-19T02:16:13.625Z,989.45
2023-02-19T02:17:13.606Z,989.47
2023-02-19T02:18:13.588Z,989.47
2023-02-19T02:19:13.588Z,989.39
2023-02-19T02:20:13.567Z,989.44
2023-02-19T02:21:13.549Z,989.45
2023-02-19T02:22:13.556Z,989.45
2023-02-19T02:23:13.538Z,989.46
2023-02-19T02:24:13.524Z,989.39
2023-02-19T02:25:13.523Z,989.41
2023-02-19T02:26:13.506Z,989.34
2023-02-19T02:27:13.525Z,989.27
2023-02-19T02:28:13.482Z,989.31
2023-02-19T02:29:13.477Z,989.27
2023-02-19T02:30:13.492Z,989.25
2023-02-19T02:31:13.947Z,989.24
2023-02-19T02:32:13.478Z,989.20
2023-02-19T02:33:13.431Z,989.20
2023-02-19T02:34:13.435Z,989.17
2023-02-19T02:35:13.423Z,989.16
2023-02-19T02:36:13.394Z,989.14
2023-02-19T02:37:13.388Z,989.14
2023-02-19T02:38:13.392Z,989.12
2023-02-19T02:39:13.574Z,989.13
2023-02-19T02:40:13.360Z,989.11
2023-02-19T02:41:13.404Z,989.11
2023-02-19T02:42:13.337Z,989.04
2023-02-19T02:43:13.338Z,989.03
2023-02-19T02:44:13.323Z,989.01
2023-02-19T02:45:13.321Z,988.83
2023-02-19T02:46:13.309Z,988.87
2023-02-19T02:47:13.304Z,988.89
2023-02-19T02:48:13.280Z,988.93
2023-02-19T02:49:13.255Z,988.91
2023-02-19T02:50:13.257Z,989.00
2023-02-19T02:51:13.388Z,989.01
2023-02-19T02:52:13.231Z,989.01
2023-02-19T02:53:13.222Z,989.01
2023-02-19T02:54:13.216Z,988.99
2023-02-19T02:55:13.220Z,988.98
2023-02-19T02:56:13.189Z,988.93
2023-02-19T02:57:13.186Z,988.95
2023-02-19T02:58:13.162Z,988.93
2023-02-19T02:59:13.165Z,988.85
2023-02-19T03:00:13.164Z,988.89
2023-02-19T03:01:13.572Z,988.90
2023-02-19T03:02:13.182Z,988.98
2023-02-19T03:03:13.127Z,988.90
2023-02-19T03:04:13.098Z,988.86
2023-02-19T03:05:13.094Z,988.94
2023-02-19T03:06:13.117Z,988.93
2023-02-19T03:07:13.105Z,988.91
2023-02-19T03:08:13.088Z,988.89
2023-02-19T03:09:13.063Z,988.92
2023-02-19T03:10:13.074Z,988.94
2023-02-19T03:11:13.032Z,988.92
2023-02-19T03:12:13.029Z,988.86
2023-02-19T03:13:13.042Z,988.91
2023-02-19T03:14:13.020Z,988.84
2023-02-19T03:15:12.993Z,988.81
2023-02-19T03:16:13.130Z,988.83
2023-02-19T03:17:12.985Z,988.84
2023-02-19T03:18:12.991Z,988.81
2023-02-19T03:19:12.945Z,988.78
2023-02-19T03:20:12.954Z,988.83
2023-02-19T03:21:13.091Z,988.72
2023-02-19T03:22:12.922Z,988.71
2023-02-19T03:23:12.922Z,988.71
2023-02-19T03:24:12.913Z,988.75
2023-02-19T03:25:12.890Z,988.74
2023-02-19T03:26:12.899Z,988.75
2023-02-19T03:27:12.876Z,988.79
2023-02-19T03:28:12.848Z,988.72
2023-02-19T03:29:12.845Z,988.77
2023-02-19T03:30:13.014Z,988.72
2023-02-19T03:31:13.249Z,988.70
2023-02-19T03:32:12.891Z,988.76
2023-02-19T03:33:12.799Z,988.68
2023-02-19T03:34:12.805Z,988.73
2023-02-19T03:35:12.791Z,988.79
2023-02-19T03:36:12.786Z,988.79
2023-02-19T03:37:12.774Z,988.72
2023-02-19T03:38:12.760Z,988.63
2023-02-19T03:39:12.732Z,988.67
2023-02-19T03:40:12.724Z,988.66
2023-02-19T03:41:12.849Z,988.66
2023-02-19T03:42:12.911Z,988.66
2023-02-19T03:43:12.707Z,988.64
2023-02-19T03:44:12.688Z,988.59
2023-02-19T03:45:12.675Z,988.59
2023-02-19T03:46:12.705Z,988.52
2023-02-19T03:47:12.667Z,988.64
2023-02-19T03:48:12.642Z,988.61
2023-02-19T03:49:12.635Z,988.60
2023-02-19T03:50:12.643Z,988.66
2023-02-19T03:51:12.792Z,988.57
2023-02-19T03:52:12.608Z,988.65
2023-02-19T03:53:12.607Z,988.64
2023-02-19T03:54:12.599Z,988.62
2023-02-19T03:55:12.575Z,988.66
2023-02-19T03:56:12.568Z,988.69
2023-02-19T03:57:12.551Z,988.64
2023-02-19T03:58:12.549Z,988.55
2023-02-19T03:59:12.530Z,988.58
2023-02-19T04:00:12.516Z,988.54
2023-02-19T04:01:12.801Z,988.55
2023-02-19T04:02:12.539Z,988.55
2023-02-19T04:03:12.492Z,988.54
2023-02-19T04:04:12.485Z,988.53
2023-02-19T04:05:14.165Z,988.58
2023-02-19T04:06:12.457Z,988.58
2023-02-19T04:07:12.456Z,988.54
2023-02-19T04:08:12.442Z,988.55
2023-02-19T04:09:12.435Z,988.60
2023-02-19T04:10:12.434Z,988.62
2023-02-19T04:11:12.615Z,988.65
2023-02-19T04:12:12.411Z,988.61
2023-02-19T04:13:12.391Z,988.64
2023-02-19T04:14:12.397Z,988.59
2023-02-19T04:15:12.379Z,988.65
2023-02-19T04:16:12.362Z,988.71
2023-02-19T04:17:12.353Z,988.67
2023-02-19T04:18:12.333Z,988.78
2023-02-19T04:19:12.346Z,988.74
2023-02-19T04:20:12.316Z,988.68
2023-02-19T04:21:12.632Z,988.65
2023-02-19T04:22:12.296Z,988.80
2023-02-19T04:23:12.283Z,988.64
2023-02-19T04:24:12.288Z,988.68
2023-02-19T04:25:12.261Z,988.71
2023-02-19T04:26:12.258Z,988.74
2023-02-19T04:27:12.258Z,988.67
2023-02-19T04:28:12.228Z,988.67
2023-02-19T04:29:12.223Z,988.75
2023-02-19T04:30:12.260Z,988.72
2023-02-19T04:31:12.562Z,988.71
2023-02-19T04:32:12.200Z,988.67
2023-02-19T04:33:12.174Z,988.69
2023-02-19T04:34:12.165Z,988.75
2023-02-19T04:35:12.202Z,988.73
2023-02-19T04:36:12.155Z,988.82
2023-02-19T04:37:12.341Z,988.74
2023-02-19T04:38:12.117Z,988.75
2023-02-19T04:39:12.108Z,988.81
2023-02-19T04:40:12.103Z,988.82
2023-02-19T04:41:12.436Z,988.84
2023-02-19T04:42:12.080Z,988.80
2023-02-19T04:43:12.069Z,988.81
2023-02-19T04:44:12.063Z,988.88
2023-02-19T04:45:12.046Z,988.89
2023-02-19T04:46:12.087Z,988.86
2023-02-19T04:47:12.026Z,988.89
2023-02-19T04:48:12.033Z,988.86
2023-02-19T04:49:12.014Z,988.92
2023-02-19T04:50:12.004Z,988.92
2023-02-19T04:51:12.383Z,988.85
2023-02-19T04:52:11.975Z,988.88
2023-02-19T04:53:11.961Z,988.95
2023-02-19T04:54:11.954Z,988.93
2023-02-19T04:55:11.959Z,988.90
2023-02-19T04:56:11.932Z,988.91
2023-02-19T04:57:11.921Z,988.96
2023-02-19T04:58:11.915Z,988.96
2023-02-19T04:59:11.901Z,988.87
2023-02-19T05:00:11.900Z,988.87
2023-02-19T05:01:12.259Z,988.96
2023-02-19T05:02:11.871Z,988.94
2023-02-19T05:03:11.865Z,988.97
2023-02-19T05:04:11.923Z,988.98
2023-02-19T05:05:11.840Z,988.94
2023-02-19T05:06:11.833Z,988.96
2023-02-19T05:07:11.827Z,988.95
2023-02-19T05:08:11.830Z,988.97
2023-02-19T05:09:11.818Z,988.99
2023-02-19T05:10:11.790Z,988.99
2023-02-19T05:11:12.207Z,988.97
2023-02-19T05:12:11.774Z,988.91
2023-02-19T05:13:11.803Z,989.02
2023-02-19T05:14:11.950Z,988.97
2023-02-19T05:15:11.742Z,989.07
2023-02-19T05:16:11.734Z,989.12
2023-02-19T05:17:11.721Z,989.12
2023-02-19T05:18:11.715Z,989.07
2023-02-19T05:19:11.699Z,989.08
2023-02-19T05:20:11.682Z,989.20
2023-02-19T05:21:12.119Z,989.11
2023-02-19T05:22:11.675Z,989.21
2023-02-19T05:23:11.669Z,989.21
2023-02-19T05:24:11.662Z,989.17
2023-02-19T05:25:11.643Z,989.13
2023-02-19T05:26:11.628Z,989.21
2023-02-19T05:27:11.619Z,989.19
2023-02-19T05:28:11.608Z,989.25
2023-02-19T05:29:11.595Z,989.33
2023-02-19T05:30:11.633Z,989.25
2023-02-19T05:31:12.078Z,989.30
2023-02-19T05:32:11.621Z,989.32
2023-02-19T05:33:11.553Z,989.24
2023-02-19T05:34:11.531Z,989.38
2023-02-19T05:35:11.539Z,989.35
2023-02-19T05:36:11.517Z,989.40
2023-02-19T05:37:11.508Z,989.39
2023-02-19T05:38:11.495Z,989.36
2023-02-19T05:39:11.491Z,989.45
2023-02-19T05:40:11.472Z,989.50
2023-02-19T05:41:11.879Z,989.60
2023-02-19T05:42:11.457Z,989.61
2023-02-19T05:43:11.449Z,989.69
2023-02-19T05:44:11.450Z,989.68
2023-02-19T05:45:11.442Z,989.56
2023-02-19T05:46:11.429Z,989.74
2023-02-19T05:47:11.398Z,989.78
2023-02-19T05:48:11.396Z,989.72
2023-02-19T05:49:11.381Z,989.72
2023-02-19T05:50:11.369Z,989.78
2023-02-19T05:51:11.670Z,989.75
2023-02-19T05:52:11.363Z,989.78
2023-02-19T05:53:11.332Z,989.89
2023-02-19T05:54:11.318Z,989.80
2023-02-19T05:55:11.311Z,989.83
2023-02-19T05:56:11.305Z,989.87
2023-02-19T05:57:11.304Z,989.92
2023-02-19T05:58:11.285Z,989.85
2023-02-19T05:59:11.275Z,989.85
2023-02-19T06:00:11.275Z,989.88
2023-02-19T06:01:11.523Z,989.92
2023-02-19T06:02:11.244Z,989.95
2023-02-19T06:03:11.236Z,989.94
2023-02-19T06:04:11.259Z,989.85
2023-02-19T06:05:11.208Z,989.94
2023-02-19T06:06:11.194Z,990.00
2023-02-19T06:07:11.197Z,989.94
2023-02-19T06:08:11.177Z,989.96
2023-02-19T06:09:11.169Z,989.87
2023-02-19T06:10:11.155Z,989.88
2023-02-19T06:11:11.643Z,989.95
2023-02-19T06:12:11.142Z,989.83
2023-02-19T06:13:11.136Z,989.87
2023-02-19T06:14:11.119Z,989.89
2023-02-19T06:15:11.104Z,989.89
2023-02-19T06:16:11.137Z,989.87
2023-02-19T06:17:11.088Z,989.92
2023-02-19T06:18:11.098Z,989.87
2023-02-19T06:19:11.072Z,989.90
2023-02-19T06:20:11.047Z,989.92
2023-02-19T06:21:11.497Z,989.91
2023-02-19T06:22:11.024Z,989.89
2023-02-19T06:23:11.012Z,989.91
2023-02-19T06:24:11.001Z,989.92
2023-02-19T06:25:10.992Z,989.98
2023-02-19T06:26:10.994Z,989.95
2023-02-19T06:27:10.975Z,989.96
2023-02-19T06:28:10.958Z,990.00
2023-02-19T06:29:10.972Z,990.08
2023-02-19T06:30:10.983Z,990.08
2023-02-19T06:31:11.381Z,990.04
2023-02-19T06:32:11.055Z,990.04
2023-02-19T06:33:10.911Z,990.06
2023-02-19T06:34:10.890Z,990.04
2023-02-19T06:35:10.903Z,990.04
2023-02-19T06:36:10.886Z,990.10
2023-02-19T06:37:10.891Z,990.09
2023-02-19T06:38:10.851Z,989.97
2023-02-19T06:39:10.873Z,990.15
2023-02-19T06:40:10.830Z,990.14
2023-02-19T06:41:11.235Z,990.10
2023-02-19T06:42:10.819Z,990.17
2023-02-19T06:43:10.792Z,990.14
2023-02-19T06:44:10.812Z,990.14
2023-02-19T06:45:10.790Z,990.14
2023-02-19T06:46:10.782Z,990.17
2023-02-19T06:47:10.779Z,990.14
2023-02-19T06:48:10.749Z,990.21
2023-02-19T06:49:10.746Z,990.22
2023-02-19T06:50:10.736Z,990.25
2023-02-19T06:51:11.014Z,990.25
2023-02-19T06:52:10.689Z,990.32
2023-02-19T06:53:10.691Z,990.35
2023-02-19T06:54:10.671Z,990.34
2023-02-19T06:55:10.676Z,990.26
2023-02-19T06:56:10.657Z,990.37
2023-02-19T06:57:10.664Z,990.37
2023-02-19T06:58:10.620Z,990.37
2023-02-19T06:59:10.623Z,990.36
2023-02-19T07:00:10.602Z,990.32
2023-02-19T07:01:11.020Z,990.42
2023-02-19T07:02:10.582Z,990.38
2023-02-19T07:03:10.585Z,990.37
2023-02-19T07:04:10.623Z,990.39
2023-02-19T07:05:10.560Z,990.44
2023-02-19T07:06:10.543Z,990.44
2023-02-19T07:07:10.542Z,990.46
2023-02-19T07:08:10.519Z,990.49
2023-02-19T07:09:10.717Z,990.52
2023-02-19T07:10:10.489Z,990.54
2023-02-19T07:11:10.806Z,990.52
2023-02-19T07:12:10.473Z,990.56
2023-02-19T07:13:10.452Z,990.54
2023-02-19T07:14:10.457Z,990.50
2023-02-19T07:15:10.449Z,990.51
2023-02-19T07:16:10.443Z,990.52
2023-02-19T07:17:10.421Z,990.55
2023-02-19T07:18:10.567Z,990.56
2023-02-19T07:19:10.398Z,990.56
2023-02-19T07:20:10.373Z,990.55
2023-02-19T07:21:10.822Z,990.66
2023-02-19T07:22:10.364Z,990.64
2023-02-19T07:23:10.543Z,990.63
2023-02-19T07:24:10.337Z,990.69
2023-02-19T07:25:10.323Z,990.69
2023-02-19T07:26:10.313Z,990.76
2023-02-19T07:27:10.301Z,990.68
2023-02-19T07:28:10.317Z,990.70
2023-02-19T07:29:10.267Z,990.67
2023-02-19T07:30:10.339Z,990.72
2023-02-19T07:31:10.805Z,990.76
2023-02-19T07:32:10.301Z,990.73
2023-02-19T07:33:10.660Z,990.73
2023-02-19T07:34:10.218Z,990.71
2023-02-19T07:35:10.208Z,990.79
2023-02-19T07:36:10.212Z,990.76
2023-02-19T07:37:10.197Z,990.85
2023-02-19T07:38:10.183Z,990.84
2023-02-19T07:39:10.315Z,990.85
2023-02-19T07:40:10.154Z,990.85
2023-02-19T07:41:10.532Z,990.93
2023-02-19T07:42:10.144Z,990.93
2023-02-19T07:43:10.133Z,990.92
2023-02-19T07:44:10.112Z,991.02
2023-02-19T07:45:10.112Z,991.03
2023-02-19T07:46:10.104Z,991.00
2023-02-19T07:47:10.094Z,991.00
2023-02-19T07:48:10.078Z,991.05
2023-02-19T07:49:10.070Z,991.04
2023-02-19T07:50:11.837Z,991.07
2023-02-19T07:51:10.430Z,991.17
2023-02-19T07:52:10.036Z,991.07
2023-02-19T07:53:10.023Z,991.10
2023-02-19T07:54:10.016Z,991.08
2023-02-19T07:55:10.012Z,991.07
2023-02-19T07:56:09.990Z,991.10
2023-02-19T07:57:09.988Z,991.17
2023-02-19T07:58:09.963Z,991.26
2023-02-19T07:59:09.956Z,991.32
2023-02-19T08:00:09.942Z,991.45
2023-02-19T08:01:10.607Z,991.36
2023-02-19T08:02:09.915Z,991.61
2023-02-19T08:03:09.947Z,991.57
2023-02-19T08:04:09.908Z,991.58
2023-02-19T08:05:09.902Z,991.64
2023-02-19T08:06:09.993Z,991.40
2023-02-19T08:07:09.882Z,991.41
2023-02-19T08:08:09.866Z,991.72
2023-02-19T08:09:09.878Z,991.71
2023-02-19T08:10:09.875Z,991.77
2023-02-19T08:11:10.315Z,991.83
2023-02-19T08:12:09.833Z,991.66
2023-02-19T08:13:09.827Z,991.56
2023-02-19T08:14:09.825Z,991.56
2023-02-19T08:15:09.810Z,991.62
2023-02-19T08:16:18.417Z,991.55
2023-02-19T08:17:09.803Z,991.58
2023-02-19T08:18:09.791Z,991.53
2023-02-19T08:19:09.786Z,991.58
2023-02-19T08:20:09.784Z,991.57
2023-02-19T08:21:10.101Z,991.63
2023-02-19T08:22:09.796Z,991.62
2023-02-19T08:23:09.765Z,991.61
2023-02-19T08:24:09.742Z,991.61
2023-02-19T08:25:09.752Z,991.56
2023-02-19T08:26:09.728Z,991.64
2023-02-19T08:27:09.738Z,991.59
2023-02-19T08:28:09.722Z,991.62
2023-02-19T08:29:09.712Z,991.64
2023-02-19T08:30:09.730Z,991.73
2023-02-19T08:31:10.197Z,991.64
2023-02-19T08:32:09.713Z,991.72
2023-02-19T08:33:09.685Z,991.71
2023-02-19T08:34:09.672Z,991.75
2023-02-19T08:35:09.660Z,991.73
2023-02-19T08:36:09.658Z,991.80
2023-02-19T08:37:09.657Z,991.70
2023-02-19T08:38:09.642Z,991.75
2023-02-19T08:39:09.628Z,991.74
2023-02-19T08:40:09.616Z,991.76
2023-02-19T08:41:10.102Z,991.72
2023-02-19T08:42:09.594Z,991.80
2023-02-19T08:43:09.579Z,991.85
2023-02-19T08:44:09.591Z,991.90
2023-02-19T08:45:09.594Z,991.90
2023-02-19T08:46:09.605Z,991.93
2023-02-19T08:47:09.562Z,991.97
2023-02-19T08:48:09.563Z,991.96
2023-02-19T08:49:09.528Z,991.97
2023-02-19T08:50:09.524Z,992.00
2023-02-19T08:51:09.843Z,992.00
2023-02-19T08:52:09.521Z,992.02
2023-02-19T08:53:09.494Z,992.04
2023-02-19T08:54:09.481Z,992.03
2023-02-19T08:55:09.491Z,992.11
2023-02-19T08:56:09.464Z,992.07
2023-02-19T08:57:09.472Z,992.16
2023-02-19T08:58:09.444Z,992.16
2023-02-19T08:59:09.453Z,992.23
2023-02-19T09:00:09.434Z,992.23
2023-02-19T09:01:09.908Z,992.19
2023-02-19T09:02:09.417Z,992.35
2023-02-19T09:03:09.402Z,992.38
2023-02-19T09:04:09.452Z,992.51
2023-02-19T09:05:09.405Z,992.64
2023-02-19T09:06:09.744Z,992.69
2023-02-19T09:07:09.369Z,992.69
2023-02-19T09:08:09.364Z,992.72
2023-02-19T09:09:09.394Z,992.79
2023-02-19T09:10:09.375Z,992.72
2023-02-19T09:11:12.332Z,992.88
2023-02-19T09:12:09.311Z,992.95
2023-02-19T09:13:12.748Z,993.00
2023-02-19T09:14:09.302Z,992.97
2023-02-19T09:15:09.319Z,993.07
2023-02-19T09:16:09.282Z,993.18
2023-02-19T09:17:09.277Z,993.26
2023-02-19T09:18:09.253Z,993.34
2023-02-19T09:19:09.249Z,993.34
2023-02-19T09:20:09.240Z,993.48
2023-02-19T09:21:09.640Z,993.47
2023-02-19T09:22:09.227Z,993.57
2023-02-19T09:23:09.220Z,993.56
2023-02-19T09:24:09.190Z,993.50
2023-02-19T09:25:09.200Z,993.53
2023-02-19T09:26:09.208Z,993.47
2023-02-19T09:27:09.179Z,993.48
2023-02-19T09:28:09.172Z,993.49
2023-02-19T09:29:09.139Z,993.47
2023-02-19T09:30:09.178Z,993.45
2023-02-19T09:31:09.515Z,993.51
2023-02-19T09:32:09.152Z,993.56
2023-02-19T09:33:09.092Z,993.58
2023-02-19T09:34:09.082Z,993.64
2023-02-19T09:35:09.072Z,993.69
2023-02-19T09:36:09.080Z,993.74
2023-02-19T09:37:09.059Z,993.80
2023-02-19T09:38:09.040Z,993.80
2023-02-19T09:39:09.094Z,993.80
2023-02-19T09:40:09.049Z,993.86
2023-02-19T09:41:09.329Z,993.87
2023-02-19T09:42:09.003Z,993.84
2023-02-19T09:43:08.988Z,993.86
2023-02-19T09:44:09.008Z,993.83
2023-02-19T09:45:08.973Z,993.82
2023-02-19T09:46:08.970Z,993.84
2023-02-19T09:47:08.928Z,993.83
2023-02-19T09:48:08.919Z,993.87
2023-02-19T09:49:08.901Z,993.94
2023-02-19T09:50:08.908Z,993.96
2023-02-19T09:51:09.360Z,994.02
2023-02-19T09:52:08.870Z,994.07
2023-02-19T09:53:08.885Z,994.11
2023-02-19T09:54:08.855Z,994.15
2023-02-19T09:55:08.839Z,994.19
2023-02-19T09:56:08.826Z,994.15
2023-02-19T09:57:08.823Z,994.14
2023-02-19T09:58:08.798Z,994.24
2023-02-19T09:59:08.809Z,994.17
2023-02-19T10:00:10.669Z,994.19
2023-02-19T10:01:09.017Z,994.21
2023-02-19T10:02:08.755Z,994.21
2023-02-19T10:03:08.778Z,994.22
2023-02-19T10:04:08.745Z,994.19
2023-02-19T10:05:08.774Z,994.14
2023-02-19T10:06:11.263Z,994.22
2023-02-19T10:07:08.715Z,994.16
2023-02-19T10:08:08.696Z,994.22
2023-02-19T10:09:08.678Z,994.25
2023-02-19T10:10:08.657Z,994.27
2023-02-19T10:11:08.770Z,994.26
2023-02-19T10:12:10.105Z,994.30
2023-02-19T10:13:08.618Z,994.30
2023-02-19T10:14:08.620Z,994.33
2023-02-19T10:15:08.867Z,994.38
2023-02-19T10:16:08.628Z,994.41
2023-02-19T10:17:08.569Z,994.49
2023-02-19T10:18:11.119Z,994.57
2023-02-19T10:19:08.548Z,994.56
2023-02-19T10:20:08.537Z,994.60
2023-02-19T10:21:08.782Z,994.59
2023-02-19T10:22:08.513Z,994.58
2023-02-19T10:23:08.505Z,994.62
2023-02-19T10:24:08.489Z,994.67
2023-02-19T10:25:08.562Z,994.72
2023-02-19T10:26:08.476Z,994.78
2023-02-19T10:27:08.473Z,994.82
2023-02-19T10:28:08.450Z,994.84
2023-02-19T10:29:08.436Z,994.85
2023-02-19T10:30:08.487Z,994.86
2023-02-19T10:31:08.586Z,994.87
2023-02-19T10:32:08.419Z,994.95
2023-02-19T10:33:08.385Z,995.04
2023-02-19T10:34:08.568Z,995.07
2023-02-19T10:35:08.364Z,995.07
2023-02-19T10:36:08.384Z,995.10
2023-02-19T10:37:08.351Z,995.11
2023-02-19T10:38:08.345Z,995.17
2023-02-19T10:39:08.747Z,995.17
2023-02-19T10:40:08.313Z,995.22
2023-02-19T10:41:08.539Z,995.24
2023-02-19T10:42:08.272Z,995.27
2023-02-19T10:43:08.265Z,995.30
2023-02-19T10:44:08.276Z,995.34
2023-02-19T10:45:08.257Z,995.33
2023-02-19T10:46:08.304Z,995.38
2023-02-19T10:47:08.212Z,995.41
2023-02-19T10:48:08.196Z,995.45
2023-02-19T10:49:08.210Z,995.47
2023-02-19T10:50:08.190Z,995.51
2023-02-19T10:51:08.199Z,995.49
2023-02-19T10:52:08.170Z,995.47
2023-02-19T10:53:08.142Z,995.51
2023-02-19T10:54:08.142Z,995.56
2023-02-19T10:55:08.115Z,995.55
2023-02-19T10:56:08.120Z,995.59
2023-02-19T10:57:08.097Z,995.61
2023-02-19T10:58:08.080Z,995.65
2023-02-19T10:59:08.151Z,995.67
2023-02-19T11:00:08.052Z,995.63
2023-02-19T11:01:08.192Z,995.67
2023-02-19T11:02:08.029Z,995.66
2023-02-19T11:03:08.023Z,995.67
2023-02-19T11:04:08.042Z,995.67
2023-02-19T11:05:08.287Z,995.68
2023-02-19T11:06:07.981Z,995.73
2023-02-19T11:07:08.172Z,995.83
2023-02-19T11:08:07.956Z,995.78
2023-02-19T11:09:07.956Z,995.80
2023-02-19T11:10:07.929Z,995.80
2023-02-19T11:11:08.014Z,995.84
2023-02-19T11:12:09.533Z,995.87
2023-02-19T11:13:07.904Z,995.89
2023-02-19T11:14:07.910Z,995.90
2023-02-19T11:15:07.881Z,995.99
2023-02-19T11:16:08.001Z,995.94
2023-02-19T11:17:07.884Z,995.98
2023-02-19T11:18:07.835Z,995.96
2023-02-19T11:19:08.018Z,995.97
2023-02-19T11:20:08.015Z,995.97
2023-02-19T11:21:08.058Z,995.99
2023-02-19T11:22:07.811Z,996.00
2023-02-19T11:23:07.986Z,996.02
2023-02-19T11:24:07.770Z,996.06
2023-02-19T11:25:07.778Z,996.10
2023-02-19T11:26:07.752Z,996.10
2023-02-19T11:27:07.736Z,996.18
2023-02-19T11:28:07.743Z,996.18
2023-02-19T11:29:07.912Z,996.22
2023-02-19T11:30:07.716Z,996.19
2023-02-19T11:31:07.738Z,996.22
2023-02-19T11:32:07.774Z,996.20
2023-02-19T11:33:07.857Z,996.19
2023-02-19T11:34:07.701Z,996.20
2023-02-19T11:35:07.850Z,996.18
2023-02-19T11:36:07.700Z,996.18
2023-02-19T11:37:07.697Z,996.16
2023-02-19T11:38:07.814Z,996.19
2023-02-19T11:39:07.586Z,996.21
2023-02-19T11:40:07.794Z,996.25
2023-02-19T11:41:07.575Z,996.24
2023-02-19T11:42:07.573Z,996.24
2023-02-19T11:43:07.562Z,996.24
2023-02-19T11:44:07.537Z,996.25
2023-02-19T11:45:07.545Z,996.24
2023-02-19T11:46:07.524Z,996.25
2023-02-19T11:47:07.506Z,996.26
2023-02-19T11:48:07.503Z,996.22
2023-02-19T11:49:07.487Z,996.23
2023-02-19T11:50:07.476Z,996.20
2023-02-19T11:51:07.456Z,996.19
2023-02-19T11:52:07.445Z,996.19
2023-02-19T11:53:07.459Z,996.15
2023-02-19T11:54:07.429Z,996.10
2023-02-19T11:55:07.386Z,996.09
2023-02-19T11:56:07.394Z,996.06
2023-02-19T11:57:07.380Z,996.06
2023-02-19T11:58:07.411Z,996.09
2023-02-19T11:59:07.412Z,996.09
2023-02-19T12:00:07.346Z,996.13
2023-02-19T12:01:07.322Z,996.14
2023-02-19T12:02:07.344Z,996.14
2023-02-19T12:03:07.311Z,996.14
2023-02-19T12:04:07.346Z,996.21
2023-02-19T12:05:07.279Z,996.23
2023-02-19T12:06:07.291Z,996.21
2023-02-19T12:07:07.267Z,996.21
2023-02-19T12:08:07.332Z,996.18
2023-02-19T12:09:07.246Z,996.21
2023-02-19T12:10:07.235Z,996.22
2023-02-19T12:11:07.202Z,996.22
2023-02-19T12:12:07.199Z,996.22
2023-02-19T12:13:07.174Z,996.24
2023-02-19T12:14:07.175Z,996.25
2023-02-19T12:15:07.150Z,996.31
2023-02-19T12:16:07.254Z,996.34
2023-02-19T12:17:07.151Z,996.36
2023-02-19T12:18:07.110Z,996.41
2023-02-19T12:19:07.108Z,996.45
2023-02-19T12:20:07.106Z,996.46
2023-02-19T12:21:07.106Z,996.43
2023-02-19T12:22:07.080Z,996.41
2023-02-19T12:23:07.073Z,996.45
2023-02-19T12:24:07.051Z,996.46
2023-02-19T12:25:07.046Z,996.48
2023-02-19T12:26:07.040Z,996.45
2023-02-19T12:27:07.036Z,996.47
2023-02-19T12:28:07.015Z,996.46